sensor_id;sensor_type;location;lat;lon;timestamp;pressure;altitude;pressure_sealevel;temperature;humidity
35676;BME280;21790;42.668;23.298;2023-04-19T00:00:18;94298.56;;;17.03;46.45
35676;BME280;21790;42.668;23.298;2023-04-19T00:02:45;94301.66;;;16.94;46.34
35676;BME280;21790;42.668;23.298;2023-04-19T00:05:13;94294.28;;;17.02;46.06
35676;BME280;21790;42.668;23.298;2023-04-19T00:07:39;94300.31;;;17.11;45.97
35676;BME280;21790;42.668;23.298;2023-04-19T00:10:05;94291.19;;;17.11;45.82
35676;BME280;21790;42.668;23.298;2023-04-19T00:12:31;94289.16;;;17.11;45.79
35676;BME280;21790;42.668;23.298;2023-04-19T00:14:57;94284.28;;;17.23;45.63
35676;BME280;21790;42.668;23.298;2023-04-19T00:17:23;94285.81;;;17.19;45.76
35676;BME280;21790;42.668;23.298;2023-04-19T00:19:48;94287.63;;;17.10;46.13
35676;BME280;21790;42.668;23.298;2023-04-19T00:22:14;94285.81;;;17.13;45.90
35676;BME280;21790;42.668;23.298;2023-04-19T00:24:39;94285.16;;;16.96;46.26
35676;BME280;21790;42.668;23.298;2023-04-19T00:27:05;94284.09;;;17.04;46.14
35676;BME280;21790;42.668;23.298;2023-04-19T00:29:30;94273.97;;;17.01;46.18
35676;BME280;21790;42.668;23.298;2023-04-19T00:31:56;94284.88;;;16.99;46.25
35676;BME280;21790;42.668;23.298;2023-04-19T00:34:22;94278.34;;;16.80;46.54
35676;BME280;21790;42.668;23.298;2023-04-19T00:36:47;94276.03;;;16.95;46.32
35676;BME280;21790;42.668;23.298;2023-04-19T00:39:15;94280.56;;;16.98;46.39
35676;BME280;21790;42.668;23.298;2023-04-19T00:41:41;94277.47;;;17.07;46.25
35676;BME280;21790;42.668;23.298;2023-04-19T00:44:06;94275.75;;;16.99;46.17
35676;BME280;21790;42.668;23.298;2023-04-19T00:46:32;94276.78;;;16.96;46.40
35676;BME280;21790;42.668;23.298;2023-04-19T00:48:58;94272.72;;;16.91;46.42
35676;BME280;21790;42.668;23.298;2023-04-19T00:51:23;94269.72;;;16.84;46.66
35676;BME280;21790;42.668;23.298;2023-04-19T00:53:49;94274.06;;;16.79;46.79
35676;BME280;21790;42.668;23.298;2023-04-19T00:56:15;94272.94;;;17.04;45.81
35676;BME280;21790;42.668;23.298;2023-04-19T00:58:41;94273.47;;;16.92;46.13
35676;BME280;21790;42.668;23.298;2023-04-19T01:01:07;94276.50;;;16.99;45.91
35676;BME280;21790;42.668;23.298;2023-04-19T01:03:33;94270.97;;;16.88;46.10
35676;BME280;21790;42.668;23.298;2023-04-19T01:05:59;94261.13;;;16.70;46.63
35676;BME280;21790;42.668;23.298;2023-04-19T01:08:24;94258.53;;;16.89;45.91
35676;BME280;21790;42.668;23.298;2023-04-19T01:10:50;94252.44;;;16.91;45.66
35676;BME280;21790;42.668;23.298;2023-04-19T01:13:15;94253.47;;;16.88;46.55
35676;BME280;21790;42.668;23.298;2023-04-19T01:15:42;94250.66;;;16.93;46.20
35676;BME280;21790;42.668;23.298;2023-04-19T01:18:08;94257.50;;;16.87;46.33
35676;BME280;21790;42.668;23.298;2023-04-19T01:20:33;94252.22;;;16.83;46.39
35676;BME280;21790;42.668;23.298;2023-04-19T01:22:59;94251.94;;;16.87;46.30
35676;BME280;21790;42.668;23.298;2023-04-19T01:25:25;94255.75;;;16.89;46.39
35676;BME280;21790;42.668;23.298;2023-04-19T01:27:51;94256.72;;;16.92;46.40
35676;BME280;21790;42.668;23.298;2023-04-19T01:30:17;94253.88;;;17.08;46.09
35676;BME280;21790;42.668;23.298;2023-04-19T01:32:43;94265.81;;;17.03;45.97
35676;BME280;21790;42.668;23.298;2023-04-19T01:35:08;94251.41;;;16.94;46.28
35676;BME280;21790;42.668;23.298;2023-04-19T01:37:35;94255.44;;;16.98;46.22
35676;BME280;21790;42.668;23.298;2023-04-19T01:40:03;94263.34;;;16.89;46.43
35676;BME280;21790;42.668;23.298;2023-04-19T01:42:29;94255.97;;;16.91;46.53
35676;BME280;21790;42.668;23.298;2023-04-19T01:44:55;94244.41;;;16.65;46.97
35676;BME280;21790;42.668;23.298;2023-04-19T01:47:22;94248.69;;;16.71;46.90
35676;BME280;21790;42.668;23.298;2023-04-19T01:49:49;94249.44;;;16.78;46.63
35676;BME280;21790;42.668;23.298;2023-04-19T01:52:14;94252.72;;;16.76;46.75
35676;BME280;21790;42.668;23.298;2023-04-19T01:54:40;94246.97;;;16.63;47.14
35676;BME280;21790;42.668;23.298;2023-04-19T01:57:05;94246.41;;;16.70;47.19
35676;BME280;21790;42.668;23.298;2023-04-19T01:59:31;94247.94;;;16.65;47.35
35676;BME280;21790;42.668;23.298;2023-04-19T02:01:56;94250.50;;;16.69;47.16
35676;BME280;21790;42.668;23.298;2023-04-19T02:04:22;94248.41;;;16.75;47.29
35676;BME280;21790;42.668;23.298;2023-04-19T02:06:47;94249.72;;;16.74;47.24
35676;BME280;21790;42.668;23.298;2023-04-19T02:09:13;94250.97;;;16.73;47.24
35676;BME280;21790;42.668;23.298;2023-04-19T02:11:39;94245.91;;;16.71;47.28
35676;BME280;21790;42.668;23.298;2023-04-19T02:14:04;94252.72;;;16.76;47.27
35676;BME280;21790;42.668;23.298;2023-04-19T02:16:30;94254.28;;;16.71;47.40
35676;BME280;21790;42.668;23.298;2023-04-19T02:18:56;94251.25;;;16.64;47.61
35676;BME280;21790;42.668;23.298;2023-04-19T02:21:21;94252.00;;;16.64;47.31
35676;BME280;21790;42.668;23.298;2023-04-19T02:23:47;94247.44;;;16.56;47.49
35676;BME280;21790;42.668;23.298;2023-04-19T02:26:13;94248.97;;;16.57;47.43
35676;BME280;21790;42.668;23.298;2023-04-19T02:28:38;94246.19;;;16.62;47.25
35676;BME280;21790;42.668;23.298;2023-04-19T02:31:04;94243.41;;;16.57;47.31
35676;BME280;21790;42.668;23.298;2023-04-19T02:33:31;94243.16;;;16.44;47.69
35676;BME280;21790;42.668;23.298;2023-04-19T02:35:57;94243.66;;;16.48;47.73
35676;BME280;21790;42.668;23.298;2023-04-19T02:38:22;94236.59;;;16.47;47.68
35676;BME280;21790;42.668;23.298;2023-04-19T02:40:48;94239.88;;;16.51;47.27
35676;BME280;21790;42.668;23.298;2023-04-19T02:43:13;94239.88;;;16.40;47.66
35676;BME280;21790;42.668;23.298;2023-04-19T02:45:39;94240.38;;;16.49;47.48
35676;BME280;21790;42.668;23.298;2023-04-19T02:48:05;94235.56;;;16.50;47.26
35676;BME280;21790;42.668;23.298;2023-04-19T02:50:31;94237.84;;;16.46;47.22
35676;BME280;21790;42.668;23.298;2023-04-19T02:52:57;94242.41;;;16.43;47.49
35676;BME280;21790;42.668;23.298;2023-04-19T02:55:22;94237.09;;;16.34;47.79
35676;BME280;21790;42.668;23.298;2023-04-19T02:57:48;94235.06;;;16.46;47.34
35676;BME280;21790;42.668;23.298;2023-04-19T03:00:13;94237.88;;;16.40;47.36
35676;BME280;21790;42.668;23.298;2023-04-19T03:02:40;94239.63;;;16.43;47.56
35676;BME280;21790;42.668;23.298;2023-04-19T03:05:08;94240.19;;;16.25;47.76
35676;BME280;21790;42.668;23.298;2023-04-19T03:07:34;94239.41;;;16.30;47.83
35676;BME280;21790;42.668;23.298;2023-04-19T03:09:59;94240.66;;;16.35;47.72
35676;BME280;21790;42.668;23.298;2023-04-19T03:12:25;94242.16;;;16.47;47.50
35676;BME280;21790;42.668;23.298;2023-04-19T03:14:50;94237.88;;;16.40;47.62
35676;BME280;21790;42.668;23.298;2023-04-19T03:17:16;94237.34;;;16.42;47.19
35676;BME280;21790;42.668;23.298;2023-04-19T03:19:41;94242.38;;;16.49;47.02
35676;BME280;21790;42.668;23.298;2023-04-19T03:22:07;94232.31;;;16.23;47.69
35676;BME280;21790;42.668;23.298;2023-04-19T03:24:32;94238.38;;;16.27;47.56
35676;BME280;21790;42.668;23.298;2023-04-19T03:26:58;94240.19;;;16.25;47.66
35676;BME280;21790;42.668;23.298;2023-04-19T03:29:23;94237.09;;;16.40;47.32
35676;BME280;21790;42.668;23.298;2023-04-19T03:31:49;94239.41;;;16.36;47.49
35676;BME280;21790;42.668;23.298;2023-04-19T03:34:15;94236.09;;;16.26;47.73
35676;BME280;21790;42.668;23.298;2023-04-19T03:36:40;94238.88;;;16.26;47.46
35676;BME280;21790;42.668;23.298;2023-04-19T03:39:06;94234.63;;;16.08;47.90
35676;BME280;21790;42.668;23.298;2023-04-19T03:41:32;94241.16;;;16.33;47.26
35676;BME280;21790;42.668;23.298;2023-04-19T03:43:58;94237.88;;;16.35;47.37
35676;BME280;21790;42.668;23.298;2023-04-19T03:46:23;94233.56;;;16.33;47.53
35676;BME280;21790;42.668;23.298;2023-04-19T03:48:49;94237.13;;;16.23;47.81
35676;BME280;21790;42.668;23.298;2023-04-19T03:51:15;94240.41;;;16.27;47.56
35676;BME280;21790;42.668;23.298;2023-04-19T03:53:41;94231.56;;;16.17;47.66
35676;BME280;21790;42.668;23.298;2023-04-19T03:56:07;94237.41;;;16.08;47.86
35676;BME280;21790;42.668;23.298;2023-04-19T03:58:33;94244.13;;;16.74;55.24
35676;BME280;21790;42.668;23.298;2023-04-19T04:00:59;94234.94;;;17.37;49.95
35676;BME280;21790;42.668;23.298;2023-04-19T04:03:26;94231.47;;;17.66;48.22
35676;BME280;21790;42.668;23.298;2023-04-19T04:05:54;94227.97;;;17.90;45.11
35676;BME280;21790;42.668;23.298;2023-04-19T04:08:20;94226.94;;;17.57;44.62
35676;BME280;21790;42.668;23.298;2023-04-19T04:10:45;94233.72;;;17.32;45.32
35676;BME280;21790;42.668;23.298;2023-04-19T04:13:11;94242.91;;;17.22;45.34
35676;BME280;21790;42.668;23.298;2023-04-19T04:15:36;94227.31;;;16.96;45.91
35676;BME280;21790;42.668;23.298;2023-04-19T04:18:02;94242.63;;;16.67;46.49
35676;BME280;21790;42.668;23.298;2023-04-19T04:20:27;94241.09;;;16.72;46.49
35676;BME280;21790;42.668;23.298;2023-04-19T04:22:53;94242.56;;;16.84;46.34
35676;BME280;21790;42.668;23.298;2023-04-19T04:25:18;94242.38;;;16.65;46.48
35676;BME280;21790;42.668;23.298;2023-04-19T04:27:46;94244.41;;;16.59;46.65
35676;BME280;21790;42.668;23.298;2023-04-19T04:30:12;94245.19;;;16.49;46.68
35676;BME280;21790;42.668;23.298;2023-04-19T04:32:38;94240.38;;;16.44;46.99
35676;BME280;21790;42.668;23.298;2023-04-19T04:35:06;94245.75;;;16.36;47.35
35676;BME280;21790;42.668;23.298;2023-04-19T04:37:34;94249.50;;;16.44;47.27
35676;BME280;21790;42.668;23.298;2023-04-19T04:40:01;94252.28;;;16.50;46.98
35676;BME280;21790;42.668;23.298;2023-04-19T04:42:34;94256.84;;;16.53;46.69
35676;BME280;21790;42.668;23.298;2023-04-19T04:45:02;94250.31;;;16.22;47.27
35676;BME280;21790;42.668;23.298;2023-04-19T04:47:32;94253.31;;;16.41;47.10
35676;BME280;21790;42.668;23.298;2023-04-19T04:50:00;94248.25;;;16.34;47.07
35676;BME280;21790;42.668;23.298;2023-04-19T04:52:27;94261.72;;;16.30;47.47
35676;BME280;21790;42.668;23.298;2023-04-19T04:54:53;94252.34;;;16.16;47.54
35676;BME280;21790;42.668;23.298;2023-04-19T04:57:19;94263.00;;;16.12;47.74
35676;BME280;21790;42.668;23.298;2023-04-19T04:59:45;94259.72;;;16.08;47.60
35676;BME280;21790;42.668;23.298;2023-04-19T05:02:15;94261.19;;;16.15;47.65
35676;BME280;21790;42.668;23.298;2023-04-19T05:04:41;94255.38;;;16.29;47.13
35676;BME280;21790;42.668;23.298;2023-04-19T05:07:07;94263.47;;;16.33;47.39
35676;BME280;21790;42.668;23.298;2023-04-19T05:09:32;94268.06;;;16.25;47.23
35676;BME280;21790;42.668;23.298;2023-04-19T05:11:58;94256.91;;;16.19;47.51
35676;BME280;21790;42.668;23.298;2023-04-19T05:14:24;94266.28;;;16.16;47.44
35676;BME280;21790;42.668;23.298;2023-04-19T05:16:54;94260.94;;;16.29;47.49
35676;BME280;21790;42.668;23.298;2023-04-19T05:19:19;94266.53;;;16.18;47.20
35676;BME280;21790;42.668;23.298;2023-04-19T05:21:45;94268.28;;;16.21;47.62
35676;BME280;21790;42.668;23.298;2023-04-19T05:24:13;94259.69;;;16.30;47.42
35676;BME280;21790;42.668;23.298;2023-04-19T05:26:39;94267.03;;;16.28;47.30
35676;BME280;21790;42.668;23.298;2023-04-19T05:29:05;94271.84;;;16.27;47.18
35676;BME280;21790;42.668;23.298;2023-04-19T05:31:31;94270.06;;;16.36;47.46
35676;BME280;21790;42.668;23.298;2023-04-19T05:33:57;94259.16;;;16.26;47.35
35676;BME280;21790;42.668;23.298;2023-04-19T05:36:23;94267.78;;;16.34;47.42
35676;BME280;21790;42.668;23.298;2023-04-19T05:38:49;94263.97;;;16.31;47.81
35676;BME280;21790;42.668;23.298;2023-04-19T05:41:15;94272.59;;;16.33;47.60
35676;BME280;21790;42.668;23.298;2023-04-19T05:43:40;94269.31;;;16.24;47.85
35676;BME280;21790;42.668;23.298;2023-04-19T05:46:06;94274.91;;;16.18;48.01
35676;BME280;21790;42.668;23.298;2023-04-19T05:48:31;94273.56;;;16.64;54.97
35676;BME280;21790;42.668;23.298;2023-04-19T05:50:57;94265.66;;;17.37;46.55
35676;BME280;21790;42.668;23.298;2023-04-19T05:53:23;94272.59;;;17.19;46.21
35676;BME280;21790;42.668;23.298;2023-04-19T05:55:49;94262.03;;;17.06;46.04
35676;BME280;21790;42.668;23.298;2023-04-19T05:58:18;94271.97;;;16.96;46.68
35676;BME280;21790;42.668;23.298;2023-04-19T06:00:45;94274.50;;;16.94;46.52
35676;BME280;21790;42.668;23.298;2023-04-19T06:03:11;94275.59;;;16.69;47.04
35676;BME280;21790;42.668;23.298;2023-04-19T06:05:59;94274.19;;;17.09;46.44
35676;BME280;21790;42.668;23.298;2023-04-19T06:08:32;94282.13;;;16.88;46.90
35676;BME280;21790;42.668;23.298;2023-04-19T06:10:59;94274.09;;;16.68;46.93
35676;BME280;21790;42.668;23.298;2023-04-19T06:13:36;94285.47;;;16.70;47.06
35676;BME280;21790;42.668;23.298;2023-04-19T06:16:03;94273.56;;;16.64;47.35
35676;BME280;21790;42.668;23.298;2023-04-19T06:18:30;94275.84;;;16.71;46.99
35676;BME280;21790;42.668;23.298;2023-04-19T06:20:57;94282.16;;;16.77;47.11
35676;BME280;21790;42.668;23.298;2023-04-19T06:23:55;94276.75;;;17.01;46.73
35676;BME280;21790;42.668;23.298;2023-04-19T06:29:04;94276.31;;;16.81;46.68
35676;BME280;21790;42.668;23.298;2023-04-19T06:31:31;94281.69;;;16.67;46.96
35676;BME280;21790;42.668;23.298;2023-04-19T06:33:58;94279.38;;;16.77;46.97
35676;BME280;21790;42.668;23.298;2023-04-19T06:36:31;94288.19;;;16.92;47.15
35676;BME280;21790;42.668;23.298;2023-04-19T06:38:56;94284.41;;;16.95;47.17
35676;BME280;21790;42.668;23.298;2023-04-19T06:41:22;94278.03;;;17.00;46.68
35676;BME280;21790;42.668;23.298;2023-04-19T06:43:48;94274.94;;;17.09;46.73
35676;BME280;21790;42.668;23.298;2023-04-19T06:46:13;94276.34;;;17.33;46.27
35676;BME280;21790;42.668;23.298;2023-04-19T06:48:42;94283.19;;;17.37;45.85
35676;BME280;21790;42.668;23.298;2023-04-19T06:51:08;94285.47;;;17.39;45.98
35676;BME280;21790;42.668;23.298;2023-04-19T06:53:40;94281.88;;;17.44;46.14
35676;BME280;21790;42.668;23.298;2023-04-19T06:58:35;94287.53;;;17.33;46.10
35676;BME280;21790;42.668;23.298;2023-04-19T07:01:20;94292.59;;;17.81;46.10
35676;BME280;21790;42.668;23.298;2023-04-19T07:07:27;94288.44;;;17.52;46.06
35676;BME280;21790;42.668;23.298;2023-04-19T07:13:27;94284.72;;;17.79;45.87
35676;BME280;21790;42.668;23.298;2023-04-19T07:19:14;94288.47;;;17.46;45.92
35676;BME280;21790;42.668;23.298;2023-04-19T07:28:34;94299.66;;;17.41;45.95
35676;BME280;21790;42.668;23.298;2023-04-19T07:34:47;94294.31;;;17.43;45.88
35676;BME280;21790;42.668;23.298;2023-04-19T07:40:54;94294.72;;;17.69;45.44
35676;BME280;21790;42.668;23.298;2023-04-19T07:50:47;94301.78;;;17.76;45.64
35676;BME280;21790;42.668;23.298;2023-04-19T07:56:59;94296.59;;;17.91;44.92
35676;BME280;21790;42.668;23.298;2023-04-19T08:03:32;94296.00;;;18.04;44.95
35676;BME280;21790;42.668;23.298;2023-04-19T08:12:51;94284.25;;;17.75;44.76
35676;BME280;21790;42.668;23.298;2023-04-19T08:19:15;94306.94;;;18.02;44.76
35676;BME280;21790;42.668;23.298;2023-04-19T08:35:25;94290.66;;;18.35;44.11
35676;BME280;21790;42.668;23.298;2023-04-19T08:41:14;94290.63;;;18.06;44.97
35676;BME280;21790;42.668;23.298;2023-04-19T08:49:59;94281.22;;;18.09;44.12
35676;BME280;21790;42.668;23.298;2023-04-19T13:52:36;94140.84;;;20.42;37.72
35676;BME280;21790;42.668;23.298;2023-04-19T14:09:42;94162.00;;;20.43;36.94
35676;BME280;21790;42.668;23.298;2023-04-19T14:15:50;94156.25;;;20.62;36.88
35676;BME280;21790;42.668;23.298;2023-04-19T14:18:19;94159.53;;;20.66;37.55
35676;BME280;21790;42.668;23.298;2023-04-19T14:21:00;94158.97;;;20.81;36.12
35676;BME280;21790;42.668;23.298;2023-04-19T14:27:03;94153.13;;;20.92;35.83
35676;BME280;21790;42.668;23.298;2023-04-19T14:39:18;94147.72;;;20.94;35.79
35676;BME280;21790;42.668;23.298;2023-04-19T14:52:02;94160.47;;;20.69;37.36
35676;BME280;21790;42.668;23.298;2023-04-19T15:02:09;94166.97;;;20.51;37.42
35676;BME280;21790;42.668;23.298;2023-04-19T15:17:51;94175.31;;;20.11;39.72
35676;BME280;21790;42.668;23.298;2023-04-19T15:24:11;94173.19;;;20.30;39.63
35676;BME280;21790;42.668;23.298;2023-04-19T15:30:18;94176.47;;;20.02;40.78
35676;BME280;21790;42.668;23.298;2023-04-19T15:36:41;94191.25;;;20.03;41.08
35676;BME280;21790;42.668;23.298;2023-04-19T15:39:43;94193.19;;;19.95;40.93
35676;BME280;21790;42.668;23.298;2023-04-19T15:45:48;94173.75;;;19.84;41.33
35676;BME280;21790;42.668;23.298;2023-04-19T18:40:44;94347.03;;;18.75;40.87
35676;BME280;21790;42.668;23.298;2023-04-19T18:43:11;94358.41;;;18.83;40.64
35676;BME280;21790;42.668;23.298;2023-04-19T18:45:39;94340.69;;;18.74;40.41
35676;BME280;21790;42.668;23.298;2023-04-19T18:48:07;94356.19;;;18.75;41.12
35676;BME280;21790;42.668;23.298;2023-04-19T18:50:42;94332.84;;;18.67;40.85
35676;BME280;21790;42.668;23.298;2023-04-19T18:53:09;94352.41;;;18.73;41.07
35676;BME280;21790;42.668;23.298;2023-04-19T18:55:38;94362.66;;;18.65;41.34
35676;BME280;21790;42.668;23.298;2023-04-19T18:58:04;94348.72;;;18.59;41.07
35676;BME280;21790;42.668;23.298;2023-04-19T19:00:30;94340.34;;;18.54;41.06
35676;BME280;21790;42.668;23.298;2023-04-19T19:02:56;94345.63;;;18.63;41.19
35676;BME280;21790;42.668;23.298;2023-04-19T19:05:22;94343.88;;;18.60;41.13
35676;BME280;21790;42.668;23.298;2023-04-19T19:07:48;94349.44;;;18.65;40.94
35676;BME280;21790;42.668;23.298;2023-04-19T19:10:14;94354.97;;;18.71;40.59
35676;BME280;21790;42.668;23.298;2023-04-19T19:12:45;94365.00;;;18.85;40.66
35676;BME280;21790;42.668;23.298;2023-04-19T19:15:12;94347.69;;;18.87;40.55
35676;BME280;21790;42.668;23.298;2023-04-19T19:17:41;94354.22;;;18.95;40.51
35676;BME280;21790;42.668;23.298;2023-04-19T19:20:08;94348.50;;;18.82;40.51
35676;BME280;21790;42.668;23.298;2023-04-19T19:22:34;94352.59;;;18.80;40.66
35676;BME280;21790;42.668;23.298;2023-04-19T19:25:03;94367.41;;;18.75;41.32
35676;BME280;21790;42.668;23.298;2023-04-19T19:27:29;94353.56;;;18.59;41.69
35676;BME280;21790;42.668;23.298;2023-04-19T19:29:55;94357.06;;;18.65;41.52
35676;BME280;21790;42.668;23.298;2023-04-19T19:32:23;94383.38;;;18.80;41.25
35676;BME280;21790;42.668;23.298;2023-04-19T19:34:49;94353.63;;;18.48;41.93
35676;BME280;21790;42.668;23.298;2023-04-19T19:37:15;94357.66;;;18.52;42.14
35676;BME280;21790;42.668;23.298;2023-04-19T19:39:43;94356.88;;;18.52;42.05
35676;BME280;21790;42.668;23.298;2023-04-19T19:42:10;94361.97;;;18.53;42.13
35676;BME280;21790;42.668;23.298;2023-04-19T19:44:38;94358.16;;;18.56;42.10
35676;BME280;21790;42.668;23.298;2023-04-19T19:47:05;94360.44;;;18.52;42.41
35676;BME280;21790;42.668;23.298;2023-04-19T19:49:31;94364.84;;;18.42;42.36
35676;BME280;21790;42.668;23.298;2023-04-19T19:51:57;94361.09;;;18.34;42.59
35676;BME280;21790;42.668;23.298;2023-04-19T19:54:23;94382.06;;;18.52;42.46
35676;BME280;21790;42.668;23.298;2023-04-19T19:56:50;94369.19;;;18.43;42.29
35676;BME280;21790;42.668;23.298;2023-04-19T19:59:16;94377.72;;;18.56;42.54
35676;BME280;21790;42.668;23.298;2023-04-19T20:01:42;94366.44;;;18.37;42.57
35676;BME280;21790;42.668;23.298;2023-04-19T20:04:08;94377.78;;;18.45;42.67
35676;BME280;21790;42.668;23.298;2023-04-19T20:06:34;94384.63;;;18.50;42.11
35676;BME280;21790;42.668;23.298;2023-04-19T20:09:00;94381.28;;;18.57;41.80
35676;BME280;21790;42.668;23.298;2023-04-19T20:11:26;94375.53;;;18.44;41.91
35676;BME280;21790;42.668;23.298;2023-04-19T20:13:51;94385.38;;;18.50;41.85
35676;BME280;21790;42.668;23.298;2023-04-19T20:16:17;94389.78;;;18.40;42.42
35676;BME280;21790;42.668;23.298;2023-04-19T20:18:44;94382.63;;;18.45;42.41
35676;BME280;21790;42.668;23.298;2023-04-19T20:21:11;94383.22;;;18.37;42.45
35676;BME280;21790;42.668;23.298;2023-04-19T20:23:37;94389.44;;;18.19;42.70
35676;BME280;21790;42.668;23.298;2023-04-19T20:26:04;94377.47;;;18.19;42.39
35676;BME280;21790;42.668;23.298;2023-04-19T20:28:30;94394.19;;;18.30;42.44
35676;BME280;21790;42.668;23.298;2023-04-19T20:30:56;94387.66;;;18.22;42.36
35676;BME280;21790;42.668;23.298;2023-04-19T20:33:22;94393.03;;;18.14;42.40
35676;BME280;21790;42.668;23.298;2023-04-19T20:35:47;94392.56;;;18.10;42.31
35676;BME280;21790;42.668;23.298;2023-04-19T20:38:13;94382.97;;;18.00;41.92
35676;BME280;21790;42.668;23.298;2023-04-19T20:40:39;94383.56;;;18.23;41.57
35676;BME280;21790;42.668;23.298;2023-04-19T20:43:07;94380.03;;;18.17;41.37
35676;BME280;21790;42.668;23.298;2023-04-19T20:45:33;94375.81;;;18.05;41.57
35676;BME280;21790;42.668;23.298;2023-04-19T20:48:00;94381.88;;;18.09;41.55
35676;BME280;21790;42.668;23.298;2023-04-19T20:50:31;94372.88;;;17.86;42.13
35676;BME280;21790;42.668;23.298;2023-04-19T20:52:56;94371.59;;;17.87;42.25
35676;BME280;21790;42.668;23.298;2023-04-19T20:55:22;94370.84;;;17.81;42.33
35676;BME280;21790;42.668;23.298;2023-04-19T20:57:48;94371.94;;;17.72;42.52
35676;BME280;21790;42.668;23.298;2023-04-19T21:00:13;94375.25;;;17.65;42.72
35676;BME280;21790;42.668;23.298;2023-04-19T21:02:41;94373.72;;;17.70;42.47
35676;BME280;21790;42.668;23.298;2023-04-19T21:05:07;94375.50;;;17.73;42.51
35676;BME280;21790;42.668;23.298;2023-04-19T21:07:32;94385.63;;;17.76;41.88
35676;BME280;21790;42.668;23.298;2023-04-19T21:09:58;94387.97;;;17.66;42.10
35676;BME280;21790;42.668;23.298;2023-04-19T21:12:24;94381.88;;;17.56;42.80
35676;BME280;21790;42.668;23.298;2023-04-19T21:14:49;94378.78;;;17.71;42.07
35676;BME280;21790;42.668;23.298;2023-04-19T21:17:16;94371.69;;;17.70;42.11
35676;BME280;21790;42.668;23.298;2023-04-19T21:19:42;94375.44;;;17.78;41.79
35676;BME280;21790;42.668;23.298;2023-04-19T21:22:07;94365.03;;;17.73;41.83
35676;BME280;21790;42.668;23.298;2023-04-19T21:24:33;94376.19;;;17.79;41.92
35676;BME280;21790;42.668;23.298;2023-04-19T21:26:58;94377.50;;;17.78;41.99
35676;BME280;21790;42.668;23.298;2023-04-19T21:29:24;94371.63;;;17.81;41.86
35676;BME280;21790;42.668;23.298;2023-04-19T21:31:50;94372.09;;;17.85;41.73
35676;BME280;21790;42.668;23.298;2023-04-19T21:34:19;94383.31;;;17.80;41.77
35676;BME280;21790;42.668;23.298;2023-04-19T21:36:44;94379.56;;;17.72;41.55
35676;BME280;21790;42.668;23.298;2023-04-19T21:39:10;94384.31;;;17.82;41.54
35676;BME280;21790;42.668;23.298;2023-04-19T21:41:36;94380.06;;;17.70;41.67
35676;BME280;21790;42.668;23.298;2023-04-19T21:44:01;94383.91;;;17.67;41.42
35676;BME280;21790;42.668;23.298;2023-04-19T21:46:27;94381.53;;;17.82;40.65
35676;BME280;21790;42.668;23.298;2023-04-19T21:48:54;94381.84;;;17.68;41.13
35676;BME280;21790;42.668;23.298;2023-04-19T21:51:20;94393.03;;;17.62;41.22
35676;BME280;21790;42.668;23.298;2023-04-19T21:53:45;94390.16;;;17.79;40.98
35676;BME280;21790;42.668;23.298;2023-04-19T21:56:11;94385.63;;;17.76;40.99
35676;BME280;21790;42.668;23.298;2023-04-19T21:58:36;94390.16;;;17.84;40.93
35676;BME280;21790;42.668;23.298;2023-04-19T22:01:02;94381.56;;;17.77;40.82
35676;BME280;21790;42.668;23.298;2023-04-19T22:03:28;94383.09;;;17.78;40.98
35676;BME280;21790;42.668;23.298;2023-04-19T22:05:53;94379.28;;;17.75;40.82
35676;BME280;21790;42.668;23.298;2023-04-19T22:08:19;94387.38;;;17.79;40.85
35676;BME280;21790;42.668;23.298;2023-04-19T22:10:46;94369.38;;;17.74;40.53
35676;BME280;21790;42.668;23.298;2023-04-19T22:13:14;94381.09;;;17.67;40.44
35676;BME280;21790;42.668;23.298;2023-04-19T22:15:42;94385.16;;;17.72;40.65
35676;BME280;21790;42.668;23.298;2023-04-19T22:18:08;94381.63;;;17.66;40.90
35676;BME280;21790;42.668;23.298;2023-04-19T22:20:34;94383.16;;;17.61;40.54
35676;BME280;21790;42.668;23.298;2023-04-19T22:23:00;94380.84;;;17.65;40.42
35676;BME280;21790;42.668;23.298;2023-04-19T22:25:25;94385.41;;;17.68;40.09
35676;BME280;21790;42.668;23.298;2023-04-19T22:27:51;94383.66;;;17.65;40.39
35676;BME280;21790;42.668;23.298;2023-04-19T22:30:17;94378.56;;;17.64;40.51
35676;BME280;21790;42.668;23.298;2023-04-19T22:32:42;94373.75;;;17.64;39.78
35676;BME280;21790;42.668;23.298;2023-04-19T22:35:08;94375.53;;;17.67;39.56
35676;BME280;21790;42.668;23.298;2023-04-19T22:37:34;94371.97;;;17.67;39.56
35676;BME280;21790;42.668;23.298;2023-04-19T22:39:59;94374.97;;;17.69;39.38
35676;BME280;21790;42.668;23.298;2023-04-19T22:42:25;94376.00;;;17.71;39.55
35676;BME280;21790;42.668;23.298;2023-04-19T22:51:48;94374.28;;;17.46;39.71
35676;BME280;21790;42.668;23.298;2023-04-19T22:54:14;94372.97;;;17.64;39.52
35676;BME280;21790;42.668;23.298;2023-04-19T22:56:39;94366.44;;;17.50;39.48
35676;BME280;21790;42.668;23.298;2023-04-19T22:59:05;94362.84;;;17.55;39.40
35676;BME280;21790;42.668;23.298;2023-04-19T23:01:32;94359.78;;;17.53;39.71
35676;BME280;21790;42.668;23.298;2023-04-19T23:03:57;94364.88;;;17.60;39.36
35676;BME280;21790;42.668;23.298;2023-04-19T23:06:23;94366.88;;;17.65;39.46
35676;BME280;21790;42.668;23.298;2023-04-19T23:08:48;94367.16;;;17.56;39.56
35676;BME280;21790;42.668;23.298;2023-04-19T23:11:15;94367.16;;;17.56;39.58
35676;BME280;21790;42.668;23.298;2023-04-19T23:13:41;94358.06;;;17.44;39.83
35676;BME280;21790;42.668;23.298;2023-04-19T23:16:09;94363.34;;;17.53;39.52
35676;BME280;21790;42.668;23.298;2023-04-19T23:18:38;94360.38;;;17.35;39.69
35676;BME280;21790;42.668;23.298;2023-04-19T23:21:04;94355.03;;;17.37;39.50
35676;BME280;21790;42.668;23.298;2023-04-19T23:23:30;94356.06;;;17.34;39.64